sensor_id;sensor_type;location;lat;lon;timestamp;temperature;humidity
20574;DHT22;10445;50.216;7.912;2023-09-12T00:00:09;22.40;1.00
20574;DHT22;10445;50.216;7.912;2023-09-12T00:02:40;22.30;1.00
20574;DHT22;10445;50.216;7.912;2023-09-12T00:05:09;22.20;1.00
20574;DHT22;10445;50.216;7.912;2023-09-12T00:07:39;22.20;1.00
20574;DHT22;10445;50.216;7.912;2023-09-12T00:10:09;22.10;1.00
20574;DHT22;10445;50.216;7.912;2023-09-12T00:12:39;22.00;1.00
20574;DHT22;10445;50.216;7.912;2023-09-12T00:15:09;21.90;1.00
20574;DHT22;10445;50.216;7.912;2023-09-12T00:17:40;21.90;1.00
20574;DHT22;10445;50.216;7.912;2023-09-12T00:20:09;21.80;1.00
20574;DHT22;10445;50.216;7.912;2023-09-12T00:22:38;21.70;1.00
20574;DHT22;10445;50.216;7.912;2023-09-12T00:25:07;21.60;1.00
20574;DHT22;10445;50.216;7.912;2023-09-12T00:27:36;21.60;1.00
20574;DHT22;10445;50.216;7.912;2023-09-12T00:30:06;21.40;4.40
20574;DHT22;10445;50.216;7.912;2023-09-12T00:32:36;21.30;6.00
20574;DHT22;10445;50.216;7.912;2023-09-12T00:35:06;21.20;6.30
20574;DHT22;10445;50.216;7.912;2023-09-12T00:37:35;21.20;7.10
20574;DHT22;10445;50.216;7.912;2023-09-12T00:40:05;21.10;8.50
20574;DHT22;10445;50.216;7.912;2023-09-12T00:42:34;21.10;9.50
20574;DHT22;10445;50.216;7.912;2023-09-12T00:45:03;21.00;9.80
20574;DHT22;10445;50.216;7.912;2023-09-12T00:47:32;21.00;10.10
20574;DHT22;10445;50.216;7.912;2023-09-12T00:50:07;21.00;11.30
20574;DHT22;10445;50.216;7.912;2023-09-12T00:52:37;21.00;11.60
20574;DHT22;10445;50.216;7.912;2023-09-12T00:55:07;20.90;15.50
20574;DHT22;10445;50.216;7.912;2023-09-12T00:57:36;20.70;17.60
20574;DHT22;10445;50.216;7.912;2023-09-12T01:00:07;20.60;18.40
20574;DHT22;10445;50.216;7.912;2023-09-12T01:02:39;20.50;22.50
20574;DHT22;10445;50.216;7.912;2023-09-12T01:05:11;20.40;25.90
20574;DHT22;10445;50.216;7.912;2023-09-12T01:07:41;20.30;28.60
20574;DHT22;10445;50.216;7.912;2023-09-12T01:10:10;20.20;30.30
20574;DHT22;10445;50.216;7.912;2023-09-12T01:12:39;20.20;30.80
20574;DHT22;10445;50.216;7.912;2023-09-12T01:15:08;20.20;31.20
20574;DHT22;10445;50.216;7.912;2023-09-12T01:17:42;20.20;32.10
20574;DHT22;10445;50.216;7.912;2023-09-12T01:20:16;20.20;31.70
20574;DHT22;10445;50.216;7.912;2023-09-12T01:22:56;20.30;31.60
20574;DHT22;10445;50.216;7.912;2023-09-12T01:25:52;20.30;30.40
20574;DHT22;10445;50.216;7.912;2023-09-12T01:28:30;20.30;30.70
20574;DHT22;10445;50.216;7.912;2023-09-12T01:31:00;20.30;30.30
20574;DHT22;10445;50.216;7.912;2023-09-12T01:33:30;20.30;30.10
20574;DHT22;10445;50.216;7.912;2023-09-12T01:35:59;20.30;29.10
20574;DHT22;10445;50.216;7.912;2023-09-12T01:38:28;20.30;28.80
20574;DHT22;10445;50.216;7.912;2023-09-12T01:40:57;20.20;28.70
20574;DHT22;10445;50.216;7.912;2023-09-12T01:43:27;20.20;28.80
20574;DHT22;10445;50.216;7.912;2023-09-12T01:45:59;20.10;28.30
20574;DHT22;10445;50.216;7.912;2023-09-12T01:48:32;20.10;28.50
20574;DHT22;10445;50.216;7.912;2023-09-12T01:51:03;20.00;29.40
20574;DHT22;10445;50.216;7.912;2023-09-12T01:53:33;20.00;29.60
20574;DHT22;10445;50.216;7.912;2023-09-12T01:56:03;19.90;30.10
20574;DHT22;10445;50.216;7.912;2023-09-12T01:58:34;19.90;31.60
20574;DHT22;10445;50.216;7.912;2023-09-12T02:01:03;19.80;31.60
20574;DHT22;10445;50.216;7.912;2023-09-12T02:03:32;19.80;32.00
20574;DHT22;10445;50.216;7.912;2023-09-12T02:06:01;19.80;32.10
20574;DHT22;10445;50.216;7.912;2023-09-12T02:08:30;19.80;32.70
20574;DHT22;10445;50.216;7.912;2023-09-12T02:10:58;19.80;32.20
20574;DHT22;10445;50.216;7.912;2023-09-12T02:13:27;19.80;32.30
20574;DHT22;10445;50.216;7.912;2023-09-12T02:16:01;19.80;32.50
20574;DHT22;10445;50.216;7.912;2023-09-12T02:18:30;19.80;32.40
20574;DHT22;10445;50.216;7.912;2023-09-12T02:20:59;19.80;32.10
20574;DHT22;10445;50.216;7.912;2023-09-12T02:23:28;19.80;32.00
20574;DHT22;10445;50.216;7.912;2023-09-12T02:25:57;19.80;30.70
20574;DHT22;10445;50.216;7.912;2023-09-12T02:28:26;19.80;31.50
20574;DHT22;10445;50.216;7.912;2023-09-12T02:30:55;19.80;31.60
20574;DHT22;10445;50.216;7.912;2023-09-12T02:33:25;19.80;31.60
20574;DHT22;10445;50.216;7.912;2023-09-12T02:35:54;19.80;31.60
20574;DHT22;10445;50.216;7.912;2023-09-12T02:38:23;19.80;31.50
20574;DHT22;10445;50.216;7.912;2023-09-12T02:40:51;19.80;32.50
20574;DHT22;10445;50.216;7.912;2023-09-12T02:43:20;19.80;33.00
20574;DHT22;10445;50.216;7.912;2023-09-12T02:45:50;19.80;32.90
20574;DHT22;10445;50.216;7.912;2023-09-12T02:48:19;19.80;33.30
20574;DHT22;10445;50.216;7.912;2023-09-12T02:50:49;19.90;30.30
20574;DHT22;10445;50.216;7.912;2023-09-12T02:53:17;19.80;30.70
20574;DHT22;10445;50.216;7.912;2023-09-12T02:55:47;19.90;32.10
20574;DHT22;10445;50.216;7.912;2023-09-12T02:58:16;19.90;32.60
20574;DHT22;10445;50.216;7.912;2023-09-12T03:00:44;19.80;33.30
20574;DHT22;10445;50.216;7.912;2023-09-12T03:03:13;19.80;34.00
20574;DHT22;10445;50.216;7.912;2023-09-12T03:05:44;19.60;33.60
20574;DHT22;10445;50.216;7.912;2023-09-12T03:08:14;19.50;34.30
20574;DHT22;10445;50.216;7.912;2023-09-12T03:10:42;19.50;35.40
20574;DHT22;10445;50.216;7.912;2023-09-12T03:13:12;19.40;35.80
20574;DHT22;10445;50.216;7.912;2023-09-12T03:15:42;19.30;37.40
20574;DHT22;10445;50.216;7.912;2023-09-12T03:18:10;19.30;38.00
20574;DHT22;10445;50.216;7.912;2023-09-12T03:20:39;19.30;39.10
20574;DHT22;10445;50.216;7.912;2023-09-12T03:23:08;19.40;39.70
20574;DHT22;10445;50.216;7.912;2023-09-12T03:25:39;19.40;39.30
20574;DHT22;10445;50.216;7.912;2023-09-12T03:28:08;19.40;39.30
20574;DHT22;10445;50.216;7.912;2023-09-12T03:30:38;19.40;38.90
20574;DHT22;10445;50.216;7.912;2023-09-12T03:33:08;19.50;38.60
20574;DHT22;10445;50.216;7.912;2023-09-12T03:35:38;19.50;38.40
20574;DHT22;10445;50.216;7.912;2023-09-12T03:38:07;19.50;38.20
20574;DHT22;10445;50.216;7.912;2023-09-12T03:40:36;19.50;38.70
20574;DHT22;10445;50.216;7.912;2023-09-12T03:43:06;19.50;40.40
20574;DHT22;10445;50.216;7.912;2023-09-12T03:45:35;19.50;42.40
20574;DHT22;10445;50.216;7.912;2023-09-12T03:48:05;19.40;42.90
20574;DHT22;10445;50.216;7.912;2023-09-12T03:50:34;19.30;43.30
20574;DHT22;10445;50.216;7.912;2023-09-12T03:53:04;19.30;43.60
20574;DHT22;10445;50.216;7.912;2023-09-12T03:55:33;19.20;43.40
20574;DHT22;10445;50.216;7.912;2023-09-12T03:58:01;19.20;44.30
20574;DHT22;10445;50.216;7.912;2023-09-12T04:00:34;19.20;45.30
20574;DHT22;10445;50.216;7.912;2023-09-12T04:03:04;19.20;46.00
20574;DHT22;10445;50.216;7.912;2023-09-12T04:05:33;19.20;47.30
20574;DHT22;10445;50.216;7.912;2023-09-12T04:08:02;19.10;48.00
20574;DHT22;10445;50.216;7.912;2023-09-12T04:10:31;19.10;48.20
20574;DHT22;10445;50.216;7.912;2023-09-12T04:13:01;19.10;49.20
20574;DHT22;10445;50.216;7.912;2023-09-12T04:15:30;19.10;50.80
20574;DHT22;10445;50.216;7.912;2023-09-12T04:18:00;19.10;50.50
20574;DHT22;10445;50.216;7.912;2023-09-12T04:20:30;19.10;50.40
20574;DHT22;10445;50.216;7.912;2023-09-12T04:23:08;19.10;50.50
20574;DHT22;10445;50.216;7.912;2023-09-12T04:25:38;19.20;51.70
20574;DHT22;10445;50.216;7.912;2023-09-12T04:28:09;19.20;53.50
20574;DHT22;10445;50.216;7.912;2023-09-12T04:30:38;19.20;55.60
20574;DHT22;10445;50.216;7.912;2023-09-12T04:33:15;19.20;56.10
20574;DHT22;10445;50.216;7.912;2023-09-12T04:35:45;19.30;56.90
20574;DHT22;10445;50.216;7.912;2023-09-12T04:38:14;19.30;57.30
20574;DHT22;10445;50.216;7.912;2023-09-12T04:40:42;19.30;59.60
20574;DHT22;10445;50.216;7.912;2023-09-12T04:43:11;19.30;60.40
20574;DHT22;10445;50.216;7.912;2023-09-12T04:45:42;19.40;62.50
20574;DHT22;10445;50.216;7.912;2023-09-12T04:48:11;19.40;62.80
20574;DHT22;10445;50.216;7.912;2023-09-12T04:50:44;19.40;64.20
20574;DHT22;10445;50.216;7.912;2023-09-12T04:53:13;19.40;63.50
20574;DHT22;10445;50.216;7.912;2023-09-12T04:55:48;19.40;63.70
20574;DHT22;10445;50.216;7.912;2023-09-12T04:58:17;19.40;67.50
20574;DHT22;10445;50.216;7.912;2023-09-12T05:00:45;19.30;70.10
20574;DHT22;10445;50.216;7.912;2023-09-12T05:03:16;19.20;72.30
20574;DHT22;10445;50.216;7.912;2023-09-12T05:06:02;19.10;74.20
20574;DHT22;10445;50.216;7.912;2023-09-12T05:08:31;19.10;74.80
20574;DHT22;10445;50.216;7.912;2023-09-12T05:11:01;19.00;75.20
20574;DHT22;10445;50.216;7.912;2023-09-12T05:13:30;19.00;75.30
20574;DHT22;10445;50.216;7.912;2023-09-12T05:15:59;19.00;76.00
20574;DHT22;10445;50.216;7.912;2023-09-12T05:18:29;18.90;76.30
20574;DHT22;10445;50.216;7.912;2023-09-12T05:21:00;18.90;77.00
20574;DHT22;10445;50.216;7.912;2023-09-12T05:23:28;18.90;78.10
20574;DHT22;10445;50.216;7.912;2023-09-12T05:25:58;18.90;78.40
20574;DHT22;10445;50.216;7.912;2023-09-12T05:28:29;18.80;78.20
20574;DHT22;10445;50.216;7.912;2023-09-12T05:30:57;18.80;78.20
20574;DHT22;10445;50.216;7.912;2023-09-12T05:33:26;18.80;77.70
20574;DHT22;10445;50.216;7.912;2023-09-12T05:36:05;18.80;78.00
20574;DHT22;10445;50.216;7.912;2023-09-12T05:38:34;18.80;79.00
20574;DHT22;10445;50.216;7.912;2023-09-12T05:41:17;18.70;78.30
20574;DHT22;10445;50.216;7.912;2023-09-12T05:43:53;18.70;77.60
20574;DHT22;10445;50.216;7.912;2023-09-12T05:46:31;18.70;78.10
20574;DHT22;10445;50.216;7.912;2023-09-12T05:48:59;18.80;78.60
20574;DHT22;10445;50.216;7.912;2023-09-12T05:51:29;18.80;77.90
20574;DHT22;10445;50.216;7.912;2023-09-12T05:53:59;18.80;78.20
20574;DHT22;10445;50.216;7.912;2023-09-12T05:56:33;18.80;78.30
20574;DHT22;10445;50.216;7.912;2023-09-12T05:59:14;18.80;77.90
20574;DHT22;10445;50.216;7.912;2023-09-12T06:01:59;18.90;77.90
20574;DHT22;10445;50.216;7.912;2023-09-12T06:04:38;19.00;78.30
20574;DHT22;10445;50.216;7.912;2023-09-12T06:07:27;19.00;76.90
20574;DHT22;10445;50.216;7.912;2023-09-12T06:10:10;19.10;76.40
20574;DHT22;10445;50.216;7.912;2023-09-12T06:12:39;19.10;75.90
20574;DHT22;10445;50.216;7.912;2023-09-12T06:15:11;19.20;77.00
20574;DHT22;10445;50.216;7.912;2023-09-12T06:17:39;19.30;77.50
20574;DHT22;10445;50.216;7.912;2023-09-12T06:20:09;19.50;77.00
20574;DHT22;10445;50.216;7.912;2023-09-12T06:22:49;19.70;75.60
20574;DHT22;10445;50.216;7.912;2023-09-12T06:25:20;19.90;73.80
20574;DHT22;10445;50.216;7.912;2023-09-12T06:27:56;20.00;73.10
20574;DHT22;10445;50.216;7.912;2023-09-12T06:30:45;20.20;72.60
20574;DHT22;10445;50.216;7.912;2023-09-12T06:33:15;20.30;70.90
20574;DHT22;10445;50.216;7.912;2023-09-12T06:35:54;20.50;69.10
20574;DHT22;10445;50.216;7.912;2023-09-12T06:38:25;20.50;67.70
20574;DHT22;10445;50.216;7.912;2023-09-12T06:40:54;20.70;68.00
20574;DHT22;10445;50.216;7.912;2023-09-12T06:43:23;20.80;66.60
20574;DHT22;10445;50.216;7.912;2023-09-12T06:45:52;20.90;64.90
20574;DHT22;10445;50.216;7.912;2023-09-12T06:48:21;20.80;64.90
20574;DHT22;10445;50.216;7.912;2023-09-12T06:50:49;20.90;64.40
20574;DHT22;10445;50.216;7.912;2023-09-12T06:53:29;21.10;61.70
20574;DHT22;10445;50.216;7.912;2023-09-12T06:55:58;21.20;59.70
20574;DHT22;10445;50.216;7.912;2023-09-12T06:58:34;21.40;59.50
20574;DHT22;10445;50.216;7.912;2023-09-12T07:01:03;21.50;56.00
20574;DHT22;10445;50.216;7.912;2023-09-12T07:03:33;21.60;54.60
20574;DHT22;10445;50.216;7.912;2023-09-12T07:06:11;21.60;49.30
20574;DHT22;10445;50.216;7.912;2023-09-12T07:08:50;21.50;51.30
20574;DHT22;10445;50.216;7.912;2023-09-12T07:11:21;21.50;53.50
20574;DHT22;10445;50.216;7.912;2023-09-12T07:13:55;21.40;54.40
20574;DHT22;10445;50.216;7.912;2023-09-12T07:16:23;21.20;56.00
20574;DHT22;10445;50.216;7.912;2023-09-12T07:18:52;21.20;57.80
20574;DHT22;10445;50.216;7.912;2023-09-12T07:21:21;21.20;60.40
20574;DHT22;10445;50.216;7.912;2023-09-12T07:23:58;21.20;61.60
20574;DHT22;10445;50.216;7.912;2023-09-12T07:26:27;21.30;63.80
20574;DHT22;10445;50.216;7.912;2023-09-12T07:28:56;21.30;63.30
20574;DHT22;10445;50.216;7.912;2023-09-12T07:31:26;21.30;63.90
20574;DHT22;10445;50.216;7.912;2023-09-12T07:33:56;21.30;63.70
20574;DHT22;10445;50.216;7.912;2023-09-12T07:36:25;21.40;63.00
20574;DHT22;10445;50.216;7.912;2023-09-12T07:38:53;21.40;62.60
20574;DHT22;10445;50.216;7.912;2023-09-12T07:41:24;21.40;63.60
20574;DHT22;10445;50.216;7.912;2023-09-12T07:43:53;21.50;63.70
20574;DHT22;10445;50.216;7.912;2023-09-12T07:46:21;21.60;65.20
20574;DHT22;10445;50.216;7.912;2023-09-12T07:48:50;21.70;63.20
20574;DHT22;10445;50.216;7.912;2023-09-12T07:51:19;21.70;58.40
20574;DHT22;10445;50.216;7.912;2023-09-12T07:53:50;21.70;59.50
20574;DHT22;10445;50.216;7.912;2023-09-12T07:56:18;21.80;59.20
20574;DHT22;10445;50.216;7.912;2023-09-12T07:58:48;21.90;59.60
20574;DHT22;10445;50.216;7.912;2023-09-12T08:01:17;22.00;63.40
20574;DHT22;10445;50.216;7.912;2023-09-12T08:03:46;22.20;66.90
20574;DHT22;10445;50.216;7.912;2023-09-12T08:06:15;22.30;66.00
20574;DHT22;10445;50.216;7.912;2023-09-12T08:08:44;22.30;62.20
20574;DHT22;10445;50.216;7.912;2023-09-12T08:11:12;22.40;63.50
20574;DHT22;10445;50.216;7.912;2023-09-12T08:13:41;22.40;61.80
20574;DHT22;10445;50.216;7.912;2023-09-12T08:16:11;22.50;59.30
20574;DHT22;10445;50.216;7.912;2023-09-12T08:18:39;22.50;54.50
20574;DHT22;10445;50.216;7.912;2023-09-12T08:21:08;22.60;54.20
20574;DHT22;10445;50.216;7.912;2023-09-12T08:23:36;22.50;53.80
20574;DHT22;10445;50.216;7.912;2023-09-12T08:26:05;22.50;53.90
20574;DHT22;10445;50.216;7.912;2023-09-12T08:28:36;22.50;55.70
20574;DHT22;10445;50.216;7.912;2023-09-12T08:31:04;22.60;59.10
20574;DHT22;10445;50.216;7.912;2023-09-12T08:33:34;22.80;60.40
20574;DHT22;10445;50.216;7.912;2023-09-12T08:36:03;23.00;58.10
20574;DHT22;10445;50.216;7.912;2023-09-12T08:38:32;23.00;49.00
20574;DHT22;10445;50.216;7.912;2023-09-12T08:41:00;23.00;47.00
20574;DHT22;10445;50.216;7.912;2023-09-12T08:43:29;22.90;46.00
20574;DHT22;10445;50.216;7.912;2023-09-12T08:45:57;22.80;39.60
20574;DHT22;10445;50.216;7.912;2023-09-12T08:48:27;22.80;46.90
20574;DHT22;10445;50.216;7.912;2023-09-12T08:51:01;23.00;50.90
20574;DHT22;10445;50.216;7.912;2023-09-12T08:53:30;23.10;47.20
20574;DHT22;10445;50.216;7.912;2023-09-12T08:55:59;23.10;46.50
20574;DHT22;10445;50.216;7.912;2023-09-12T08:58:31;23.20;43.70
20574;DHT22;10445;50.216;7.912;2023-09-12T09:01:00;23.30;46.70
20574;DHT22;10445;50.216;7.912;2023-09-12T09:03:30;23.30;48.00
20574;DHT22;10445;50.216;7.912;2023-09-12T09:06:01;23.40;46.00
20574;DHT22;10445;50.216;7.912;2023-09-12T09:08:31;23.30;37.00
20574;DHT22;10445;50.216;7.912;2023-09-12T09:11:01;23.30;40.40
20574;DHT22;10445;50.216;7.912;2023-09-12T09:13:30;23.30;35.30
20574;DHT22;10445;50.216;7.912;2023-09-12T09:16:12;23.30;40.90
20574;DHT22;10445;50.216;7.912;2023-09-12T09:18:51;23.30;39.10
20574;DHT22;10445;50.216;7.912;2023-09-12T09:21:23;23.30;31.20
20574;DHT22;10445;50.216;7.912;2023-09-12T09:23:54;23.30;31.10
20574;DHT22;10445;50.216;7.912;2023-09-12T09:26:23;23.30;32.30
20574;DHT22;10445;50.216;7.912;2023-09-12T09:29:06;23.40;37.40
20574;DHT22;10445;50.216;7.912;2023-09-12T09:31:35;23.50;38.70
20574;DHT22;10445;50.216;7.912;2023-09-12T09:34:10;23.60;34.80
20574;DHT22;10445;50.216;7.912;2023-09-12T09:36:46;23.70;33.70
20574;DHT22;10445;50.216;7.912;2023-09-12T09:39:17;23.70;31.80
20574;DHT22;10445;50.216;7.912;2023-09-12T09:41:47;23.70;34.10
20574;DHT22;10445;50.216;7.912;2023-09-12T09:44:17;23.90;38.00
20574;DHT22;10445;50.216;7.912;2023-09-12T09:46:46;24.10;34.70
20574;DHT22;10445;50.216;7.912;2023-09-12T09:49:15;24.40;31.20
20574;DHT22;10445;50.216;7.912;2023-09-12T09:51:46;24.60;28.60
20574;DHT22;10445;50.216;7.912;2023-09-12T09:54:15;24.60;29.00
20574;DHT22;10445;50.216;7.912;2023-09-12T09:56:47;24.60;28.80
20574;DHT22;10445;50.216;7.912;2023-09-12T09:59:17;24.60;25.70
20574;DHT22;10445;50.216;7.912;2023-09-12T10:01:46;24.70;21.10
20574;DHT22;10445;50.216;7.912;2023-09-12T10:04:18;24.80;22.10
20574;DHT22;10445;50.216;7.912;2023-09-12T10:06:49;24.80;19.20
20574;DHT22;10445;50.216;7.912;2023-09-12T10:09:19;24.90;17.90
20574;DHT22;10445;50.216;7.912;2023-09-12T10:11:51;25.00;17.20
20574;DHT22;10445;50.216;7.912;2023-09-12T10:14:22;24.90;10.30
20574;DHT22;10445;50.216;7.912;2023-09-12T10:16:57;24.90;11.90
20574;DHT22;10445;50.216;7.912;2023-09-12T10:19:29;24.90;15.10
20574;DHT22;10445;50.216;7.912;2023-09-12T10:22:09;24.90;15.70
20574;DHT22;10445;50.216;7.912;2023-09-12T10:24:39;24.80;16.20
20574;DHT22;10445;50.216;7.912;2023-09-12T10:27:09;24.80;15.20
20574;DHT22;10445;50.216;7.912;2023-09-12T10:29:40;24.90;15.60
20574;DHT22;10445;50.216;7.912;2023-09-12T10:32:08;24.80;14.00
20574;DHT22;10445;50.216;7.912;2023-09-12T10:34:38;24.80;13.30
20574;DHT22;10445;50.216;7.912;2023-09-12T10:37:13;24.70;10.90
20574;DHT22;10445;50.216;7.912;2023-09-12T10:39:43;24.60;12.70
20574;DHT22;10445;50.216;7.912;2023-09-12T10:42:13;24.50;13.70
20574;DHT22;10445;50.216;7.912;2023-09-12T10:44:42;24.50;16.30
20574;DHT22;10445;50.216;7.912;2023-09-12T10:47:11;24.60;15.40
20574;DHT22;10445;50.216;7.912;2023-09-12T10:49:43;24.60;16.40
20574;DHT22;10445;50.216;7.912;2023-09-12T10:52:24;24.70;13.20
20574;DHT22;10445;50.216;7.912;2023-09-12T10:54:53;24.90;9.10
20574;DHT22;10445;50.216;7.912;2023-09-12T10:57:22;24.90;6.50
20574;DHT22;10445;50.216;7.912;2023-09-12T11:00:17;24.90;6.10
20574;DHT22;10445;50.216;7.912;2023-09-12T11:02:46;25.00;6.50
20574;DHT22;10445;50.216;7.912;2023-09-12T11:05:36;25.00;7.90
20574;DHT22;10445;50.216;7.912;2023-09-12T11:08:07;25.00;7.60
20574;DHT22;10445;50.216;7.912;2023-09-12T11:10:35;25.10;7.90
20574;DHT22;10445;50.216;7.912;2023-09-12T11:13:04;25.10;8.70
20574;DHT22;10445;50.216;7.912;2023-09-12T11:15:33;25.20;10.70
20574;DHT22;10445;50.216;7.912;2023-09-12T11:18:05;25.40;11.80
20574;DHT22;10445;50.216;7.912;2023-09-12T11:20:51;25.50;10.10
20574;DHT22;10445;50.216;7.912;2023-09-12T11:23:34;25.60;4.90
20574;DHT22;10445;50.216;7.912;2023-09-12T11:26:05;25.40;4.30
20574;DHT22;10445;50.216;7.912;2023-09-12T11:28:38;25.30;5.60
20574;DHT22;10445;50.216;7.912;2023-09-12T11:31:10;25.20;6.70
20574;DHT22;10445;50.216;7.912;2023-09-12T11:33:40;25.10;9.70
20574;DHT22;10445;50.216;7.912;2023-09-12T11:36:13;25.00;7.00
20574;DHT22;10445;50.216;7.912;2023-09-12T11:38:49;25.00;9.30
20574;DHT22;10445;50.216;7.912;2023-09-12T11:41:38;25.00;11.90
20574;DHT22;10445;50.216;7.912;2023-09-12T11:44:07;24.90;10.80
20574;DHT22;10445;50.216;7.912;2023-09-12T11:46:36;24.70;10.30
20574;DHT22;10445;50.216;7.912;2023-09-12T11:49:05;24.60;11.20
20574;DHT22;10445;50.216;7.912;2023-09-12T11:51:33;24.50;13.70
20574;DHT22;10445;50.216;7.912;2023-09-12T11:54:04;24.30;21.60
20574;DHT22;10445;50.216;7.912;2023-09-12T11:56:33;24.10;34.10
20574;DHT22;10445;50.216;7.912;2023-09-12T11:59:02;23.80;38.80
20574;DHT22;10445;50.216;7.912;2023-09-12T12:01:30;23.60;42.30
20574;DHT22;10445;50.216;7.912;2023-09-12T12:03:59;23.50;47.30
20574;DHT22;10445;50.216;7.912;2023-09-12T12:06:28;23.40;51.80
20574;DHT22;10445;50.216;7.912;2023-09-12T12:08:58;23.40;56.60
20574;DHT22;10445;50.216;7.912;2023-09-12T12:11:29;23.30;60.90
20574;DHT22;10445;50.216;7.912;2023-09-12T12:13:57;23.30;62.70
20574;DHT22;10445;50.216;7.912;2023-09-12T12:16:26;23.20;67.70
20574;DHT22;10445;50.216;7.912;2023-09-12T12:18:55;23.20;67.50
20574;DHT22;10445;50.216;7.912;2023-09-12T12:21:24;23.10;72.20
20574;DHT22;10445;50.216;7.912;2023-09-12T12:23:59;23.00;71.80
20574;DHT22;10445;50.216;7.912;2023-09-12T12:26:30;23.10;73.70
20574;DHT22;10445;50.216;7.912;2023-09-12T12:28:59;23.10;70.20
20574;DHT22;10445;50.216;7.912;2023-09-12T12:31:29;23.20;66.50
20574;DHT22;10445;50.216;7.912;2023-09-12T12:34:00;23.30;67.10
20574;DHT22;10445;50.216;7.912;2023-09-12T12:36:48;23.40;66.80
20574;DHT22;10445;50.216;7.912;2023-09-12T12:39:24;23.60;57.00
20574;DHT22;10445;50.216;7.912;2023-09-12T12:41:54;23.70;50.70
20574;DHT22;10445;50.216;7.912;2023-09-12T12:44:23;23.80;49.50
20574;DHT22;10445;50.216;7.912;2023-09-12T12:47:04;24.00;49.00
20574;DHT22;10445;50.216;7.912;2023-09-12T12:49:37;24.20;43.70
20574;DHT22;10445;50.216;7.912;2023-09-12T12:52:09;24.40;43.90
20574;DHT22;10445;50.216;7.912;2023-09-12T12:54:38;24.60;45.50
20574;DHT22;10445;50.216;7.912;2023-09-12T12:57:12;24.70;34.00
20574;DHT22;10445;50.216;7.912;2023-09-12T12:59:45;24.80;32.60
20574;DHT22;10445;50.216;7.912;2023-09-12T13:02:13;24.80;30.30
20574;DHT22;10445;50.216;7.912;2023-09-12T13:04:42;24.80;29.20
20574;DHT22;10445;50.216;7.912;2023-09-12T13:07:11;24.90;27.90
20574;DHT22;10445;50.216;7.912;2023-09-12T13:09:40;25.30;18.30
20574;DHT22;10445;50.216;7.912;2023-09-12T13:12:10;25.50;15.30
20574;DHT22;10445;50.216;7.912;2023-09-12T13:14:39;25.70;16.20
20574;DHT22;10445;50.216;7.912;2023-09-12T13:17:07;25.80;15.60
20574;DHT22;10445;50.216;7.912;2023-09-12T13:19:36;25.60;14.50
20574;DHT22;10445;50.216;7.912;2023-09-12T13:22:04;25.60;14.10
20574;DHT22;10445;50.216;7.912;2023-09-12T13:24:33;25.40;14.70
20574;DHT22;10445;50.216;7.912;2023-09-12T13:27:01;25.60;15.50
20574;DHT22;10445;50.216;7.912;2023-09-12T13:29:31;25.60;12.90
20574;DHT22;10445;50.216;7.912;2023-09-12T13:32:00;25.40;11.50
20574;DHT22;10445;50.216;7.912;2023-09-12T13:34:30;25.40;11.90
20574;DHT22;10445;50.216;7.912;2023-09-12T13:37:00;25.40;10.90
20574;DHT22;10445;50.216;7.912;2023-09-12T13:39:39;25.40;10.60
20574;DHT22;10445;50.216;7.912;2023-09-12T13:42:08;25.50;11.40
20574;DHT22;10445;50.216;7.912;2023-09-12T13:44:39;25.50;11.10
20574;DHT22;10445;50.216;7.912;2023-09-12T13:47:07;25.60;9.90
20574;DHT22;10445;50.216;7.912;2023-09-12T13:49:36;25.40;8.20
20574;DHT22;10445;50.216;7.912;2023-09-12T13:52:05;25.30;10.20
20574;DHT22;10445;50.216;7.912;2023-09-12T13:54:33;25.10;11.30
20574;DHT22;10445;50.216;7.912;2023-09-12T13:57:03;25.00;12.10
20574;DHT22;10445;50.216;7.912;2023-09-12T13:59:31;24.90;13.70
20574;DHT22;10445;50.216;7.912;2023-09-12T14:02:13;25.00;13.80
20574;DHT22;10445;50.216;7.912;2023-09-12T14:04:42;25.30;14.80
20574;DHT22;10445;50.216;7.912;2023-09-12T14:07:12;25.30;10.30
20574;DHT22;10445;50.216;7.912;2023-09-12T14:09:41;25.20;11.30
20574;DHT22;10445;50.216;7.912;2023-09-12T14:12:10;25.00;12.40
20574;DHT22;10445;50.216;7.912;2023-09-12T14:14:54;25.00;13.10
20574;DHT22;10445;50.216;7.912;2023-09-12T14:17:35;25.10;13.00
20574;DHT22;10445;50.216;7.912;2023-09-12T14:20:12;25.20;13.10
20574;DHT22;10445;50.216;7.912;2023-09-12T14:22:43;25.30;12.30
20574;DHT22;10445;50.216;7.912;2023-09-12T14:25:12;25.20;11.50
20574;DHT22;10445;50.216;7.912;2023-09-12T14:27:42;25.20;12.60
20574;DHT22;10445;50.216;7.912;2023-09-12T14:30:12;26.10;6.50
20574;DHT22;10445;50.216;7.912;2023-09-12T14:32:43;27.00;2.20
20574;DHT22;10445;50.216;7.912;2023-09-12T14:35:11;27.90;1.00
20574;DHT22;10445;50.216;7.912;2023-09-12T14:37:40;28.60;1.00
20574;DHT22;10445;50.216;7.912;2023-09-12T14:40:10;28.70;1.00
20574;DHT22;10445;50.216;7.912;2023-09-12T14:42:40;28.10;1.00
20574;DHT22;10445;50.216;7.912;2023-09-12T14:45:10;27.40;1.00
20574;DHT22;10445;50.216;7.912;2023-09-12T14:47:38;26.90;1.00
20574;DHT22;10445;50.216;7.912;2023-09-12T14:50:09;26.90;1.00
20574;DHT22;10445;50.216;7.912;2023-09-12T14:52:38;27.00;1.00
20574;DHT22;10445;50.216;7.912;2023-09-12T14:55:07;27.10;1.00
20574;DHT22;10445;50.216;7.912;2023-09-12T14:57:37;27.20;1.00
20574;DHT22;10445;50.216;7.912;2023-09-12T15:00:07;27.00;1.00
20574;DHT22;10445;50.216;7.912;2023-09-12T15:02:36;26.70;1.00
20574;DHT22;10445;50.216;7.912;2023-09-12T15:05:06;26.50;1.00
20574;DHT22;10445;50.216;7.912;2023-09-12T15:07:36;26.10;1.00
20574;DHT22;10445;50.216;7.912;2023-09-12T15:10:06;25.70;2.50
20574;DHT22;10445;50.216;7.912;2023-09-12T15:12:35;25.40;5.60
20574;DHT22;10445;50.216;7.912;2023-09-12T15:15:04;25.30;9.30
20574;DHT22;10445;50.216;7.912;2023-09-12T15:17:32;25.00;11.80
20574;DHT22;10445;50.216;7.912;2023-09-12T15:20:02;25.00;11.70
20574;DHT22;10445;50.216;7.912;2023-09-12T15:22:32;24.70;12.40
20574;DHT22;10445;50.216;7.912;2023-09-12T15:25:04;24.60;15.90
20574;DHT22;10445;50.216;7.912;2023-09-12T15:27:32;24.50;17.00
20574;DHT22;10445;50.216;7.912;2023-09-12T15:30:05;24.50;18.00
20574;DHT22;10445;50.216;7.912;2023-09-12T15:32:34;24.40;17.70
20574;DHT22;10445;50.216;7.912;2023-09-12T15:35:03;24.30;18.50
20574;DHT22;10445;50.216;7.912;2023-09-12T15:37:32;24.30;18.50
20574;DHT22;10445;50.216;7.912;2023-09-12T15:40:01;24.30;18.70
20574;DHT22;10445;50.216;7.912;2023-09-12T15:42:31;24.20;18.90
20574;DHT22;10445;50.216;7.912;2023-09-12T15:45:04;24.20;18.20
20574;DHT22;10445;50.216;7.912;2023-09-12T15:47:35;24.10;18.10
20574;DHT22;10445;50.216;7.912;2023-09-12T15:50:04;24.10;17.90
20574;DHT22;10445;50.216;7.912;2023-09-12T15:52:33;24.00;18.90
20574;DHT22;10445;50.216;7.912;2023-09-12T15:55:05;24.00;19.20